createdAt,value
2023-03-01T00:00:56.646Z,9.88
2023-03-01T00:03:23.796Z,9.95
2023-03-01T00:05:50.819Z,9.52
2023-03-01T00:08:17.905Z,9.48
2023-03-01T00:10:44.989Z,10.02
2023-03-01T00:13:12.086Z,10.20
2023-03-01T00:15:42.426Z,8.70
2023-03-01T00:18:09.904Z,10.48
2023-03-01T00:20:36.904Z,9.80
2023-03-01T00:23:03.919Z,10.55
2023-03-01T00:25:31.092Z,10.60
2023-03-01T00:30:48.608Z,8.55
2023-03-01T00:33:15.694Z,9.70
2023-03-01T00:35:42.808Z,8.00
2023-03-01T00:38:09.844Z,8.63
2023-03-01T00:40:37.685Z,8.60
2023-03-01T00:43:05.538Z,8.02
2023-03-01T00:45:32.565Z,9.48
2023-03-01T00:47:59.619Z,9.88
2023-03-01T00:50:26.693Z,9.40
2023-03-01T00:52:54.512Z,9.18
2023-03-01T00:55:21.845Z,9.25
2023-03-01T00:57:49.000Z,8.15
2023-03-01T01:00:16.188Z,8.57
2023-03-01T01:02:43.325Z,9.10
2023-03-01T01:05:10.715Z,8.40
2023-03-01T01:07:37.841Z,7.97
2023-03-01T01:10:04.978Z,9.50
2023-03-01T01:12:32.137Z,9.40
2023-03-01T01:14:59.169Z,8.48
2023-03-01T01:17:26.566Z,8.80
2023-03-01T01:19:53.599Z,8.70
2023-03-01T01:22:20.617Z,10.07
2023-03-01T01:24:47.644Z,8.98
2023-03-01T01:27:14.695Z,7.72
2023-03-01T01:29:43.094Z,8.65
2023-03-01T01:32:10.198Z,8.70
2023-03-01T01:34:37.309Z,8.55
2023-03-01T01:37:04.848Z,8.02
2023-03-01T01:39:31.840Z,8.75
2023-03-01T01:41:58.852Z,9.18
2023-03-01T01:44:27.659Z,7.90
2023-03-01T01:47:00.009Z,8.18
2023-03-01T01:49:30.569Z,8.70
2023-03-01T01:52:01.564Z,8.15
2023-03-01T01:54:35.390Z,8.82
2023-03-01T01:57:04.720Z,8.00
2023-03-01T01:59:38.864Z,8.43
2023-03-01T02:09:17.386Z,8.07
2023-03-01T02:11:45.221Z,8.38
2023-03-01T02:14:12.577Z,7.93
2023-03-01T02:16:39.776Z,7.50
2023-03-01T02:19:07.187Z,8.32
2023-03-01T02:21:47.903Z,8.63
2023-03-01T02:24:24.966Z,8.10
2023-03-01T02:26:54.103Z,7.53
2023-03-01T02:29:21.600Z,7.75
2023-03-01T02:31:49.331Z,7.22
2023-03-01T02:34:18.746Z,9.10
2023-03-01T02:36:47.378Z,7.35
2023-03-01T02:39:17.505Z,8.40
2023-03-01T02:41:46.073Z,7.85
2023-03-01T02:44:13.154Z,7.25
2023-03-01T02:46:44.476Z,8.63
2023-03-01T02:49:22.987Z,8.38
2023-03-01T02:51:56.422Z,8.48
2023-03-01T02:54:41.544Z,8.43
2023-03-01T02:57:14.403Z,7.30
2023-03-01T02:59:43.364Z,7.78
2023-03-01T03:02:36.735Z,8.00
2023-03-01T03:05:09.295Z,8.73
2023-03-01T03:07:38.399Z,9.10
2023-03-01T03:10:06.652Z,7.85
2023-03-01T03:12:33.662Z,7.78
2023-03-01T03:15:00.740Z,8.98
2023-03-01T03:17:27.742Z,7.75
2023-03-01T03:19:54.952Z,7.90
2023-03-01T03:22:21.993Z,8.35
2023-03-01T03:24:49.103Z,8.10
2023-03-01T03:27:17.209Z,8.27
2023-03-01T03:29:44.305Z,7.53
2023-03-01T03:32:13.429Z,8.38
2023-03-01T03:34:40.835Z,8.82
2023-03-01T03:37:27.826Z,7.18
2023-03-01T03:39:55.685Z,6.75
2023-03-01T03:42:23.339Z,7.15
2023-03-01T03:44:50.349Z,7.10
2023-03-01T03:47:17.403Z,8.90
2023-03-01T03:49:44.387Z,8.25
2023-03-01T03:52:14.279Z,8.60
2023-03-01T03:54:42.022Z,8.85
2023-03-01T03:57:09.544Z,7.88
2023-03-01T03:59:36.602Z,7.70
2023-03-01T04:02:03.720Z,8.35
2023-03-01T04:04:30.771Z,8.05
2023-03-01T04:06:57.828Z,8.05
2023-03-01T04:09:24.852Z,7.50
2023-03-01T04:11:51.885Z,7.53
2023-03-01T04:14:18.985Z,7.63
2023-03-01T04:16:46.024Z,7.30
2023-03-01T04:19:13.100Z,8.23
2023-03-01T04:21:40.091Z,7.75
2023-03-01T04:24:07.745Z,7.60
2023-03-01T04:26:34.807Z,8.50
2023-03-01T04:29:01.846Z,7.65
2023-03-01T04:31:29.255Z,8.05
2023-03-01T04:33:57.277Z,7.50
2023-03-01T04:36:26.010Z,7.88
2023-03-01T04:38:53.243Z,8.95
2023-03-01T04:41:21.557Z,8.07
2023-03-01T04:43:49.558Z,7.82
2023-03-01T04:46:18.725Z,7.20
2023-03-01T04:48:47.622Z,7.95
2023-03-01T04:51:14.802Z,7.20
2023-03-01T04:53:42.512Z,6.80
2023-03-01T04:56:09.868Z,7.63
2023-03-01T04:58:37.033Z,7.57
2023-03-01T05:01:15.950Z,7.40
2023-03-01T05:03:46.495Z,7.32
2023-03-01T05:06:13.821Z,7.00
2023-03-01T05:08:41.710Z,8.00
2023-03-01T05:11:11.932Z,7.60
2023-03-01T05:13:39.678Z,7.97
2023-03-01T05:16:07.579Z,10.68
2023-03-01T05:18:35.763Z,7.20
2023-03-01T05:21:04.975Z,8.70
2023-03-01T05:23:32.648Z,6.60
2023-03-01T05:26:00.500Z,8.77
2023-03-01T05:28:29.165Z,9.93
2023-03-01T05:30:56.484Z,11.13
2023-03-01T05:33:23.716Z,11.15
2023-03-01T05:35:52.583Z,10.10
2023-03-01T05:38:20.081Z,12.32
2023-03-01T05:40:48.387Z,13.90
2023-03-01T05:43:16.261Z,15.85
2023-03-01T05:45:43.603Z,18.50
2023-03-01T05:48:11.979Z,13.55
2023-03-01T05:50:40.596Z,14.50
2023-03-01T05:53:12.054Z,12.40
2023-03-01T05:55:39.608Z,12.25
2023-03-01T05:58:07.808Z,13.00
2023-03-01T06:00:35.170Z,12.90
2023-03-01T06:03:02.639Z,15.35
2023-03-01T06:05:29.890Z,13.43
2023-03-01T06:07:57.033Z,11.75
2023-03-01T06:10:24.094Z,12.77
2023-03-01T06:12:51.115Z,15.65
2023-03-01T06:15:18.822Z,11.52
2023-03-01T06:17:46.870Z,21.98
2023-03-01T06:20:14.093Z,13.07
2023-03-01T06:22:41.465Z,12.40
2023-03-01T06:25:09.288Z,12.05
2023-03-01T06:27:36.745Z,14.35
2023-03-01T06:30:04.179Z,12.63
2023-03-01T06:32:32.100Z,13.23
2023-03-01T06:35:02.056Z,11.68
2023-03-01T06:37:29.113Z,12.20
2023-03-01T06:39:56.307Z,10.68
2023-03-01T06:42:23.330Z,12.40
2023-03-01T06:44:50.344Z,15.32
2023-03-01T06:47:17.393Z,9.43
2023-03-01T06:49:44.415Z,11.15
2023-03-01T06:52:11.414Z,12.15
2023-03-01T06:54:38.401Z,13.27
2023-03-01T06:57:05.463Z,14.35
2023-03-01T06:59:32.495Z,12.50
2023-03-01T07:01:59.666Z,13.23
2023-03-01T07:04:29.464Z,10.10
2023-03-01T07:06:56.487Z,12.10
2023-03-01T07:09:24.501Z,12.25
2023-03-01T07:11:52.034Z,14.98
2023-03-01T07:14:20.665Z,15.73
2023-03-01T07:16:47.904Z,10.65
2023-03-01T07:19:14.992Z,9.57
2023-03-01T07:21:41.992Z,10.45
2023-03-01T07:24:09.589Z,9.77
2023-03-01T07:26:36.792Z,11.05
2023-03-01T07:29:07.811Z,12.52
2023-03-01T07:31:35.001Z,10.13
2023-03-01T07:34:02.040Z,10.07
2023-03-01T07:36:29.230Z,10.27
2023-03-01T07:38:56.767Z,10.00
2023-03-01T07:41:23.962Z,10.32
2023-03-01T07:43:51.176Z,10.45
2023-03-01T07:46:19.990Z,9.55
2023-03-01T07:48:47.195Z,8.45
2023-03-01T07:51:14.560Z,9.93
2023-03-01T07:53:41.561Z,10.35
2023-03-01T07:56:08.594Z,11.20
2023-03-01T07:58:36.555Z,11.75
2023-03-01T08:01:04.359Z,11.73
2023-03-01T08:03:31.449Z,10.23
2023-03-01T08:06:02.685Z,10.60
2023-03-01T08:08:29.830Z,10.63
2023-03-01T08:11:00.528Z,10.70
2023-03-01T08:13:28.234Z,13.20
2023-03-01T08:15:56.813Z,12.00
2023-03-01T08:18:23.946Z,9.83
2023-03-01T08:20:51.012Z,10.87
2023-03-01T08:23:18.012Z,10.40
2023-03-01T08:25:45.100Z,10.67
2023-03-01T08:28:12.146Z,9.60
2023-03-01T08:30:39.220Z,11.10
2023-03-01T08:33:06.279Z,12.87
2023-03-01T08:35:33.426Z,14.73
2023-03-01T08:38:00.470Z,12.63
2023-03-01T08:40:27.472Z,13.77
2023-03-01T08:42:54.502Z,12.57
2023-03-01T08:45:21.505Z,16.70
2023-03-01T08:47:48.567Z,11.83
2023-03-01T08:50:15.712Z,12.93
2023-03-01T08:52:42.864Z,14.70
2023-03-01T08:55:10.044Z,11.90
2023-03-01T08:57:37.175Z,16.03
2023-03-01T09:00:08.861Z,11.30
2023-03-01T09:02:36.078Z,13.27
2023-03-01T09:05:03.123Z,11.50
2023-03-01T09:07:30.222Z,11.60
2023-03-01T09:09:57.320Z,11.87
2023-03-01T09:12:25.864Z,13.87
2023-03-01T09:14:52.929Z,13.87
2023-03-01T09:17:22.404Z,13.30
2023-03-01T09:19:50.270Z,11.30
2023-03-01T09:22:17.349Z,11.40
2023-03-01T09:24:44.432Z,9.90
2023-03-01T09:27:12.157Z,10.93
2023-03-01T09:29:39.278Z,10.27
2023-03-01T09:32:06.396Z,10.50
2023-03-01T09:34:53.425Z,9.50
2023-03-01T09:37:20.464Z,9.93
2023-03-01T09:39:47.496Z,9.23
2023-03-01T09:42:15.033Z,10.40
2023-03-01T09:44:46.667Z,9.80
2023-03-01T09:47:19.433Z,10.73
2023-03-01T09:49:49.893Z,10.07
2023-03-01T09:52:26.695Z,9.17
2023-03-01T09:54:55.890Z,9.73
2023-03-01T09:57:24.995Z,8.63
2023-03-01T10:00:11.135Z,9.33
2023-03-01T10:02:45.444Z,9.13
2023-03-01T10:05:38.946Z,9.33
2023-03-01T10:08:12.020Z,8.63
2023-03-01T10:10:40.294Z,8.43
2023-03-01T10:13:16.545Z,8.90
2023-03-01T10:15:47.112Z,8.23
2023-03-01T10:18:15.523Z,8.87
2023-03-01T10:20:48.651Z,8.90
2023-03-01T10:23:15.731Z,8.37
2023-03-01T10:25:58.060Z,7.50
2023-03-01T10:28:48.462Z,7.60
2023-03-01T10:31:18.424Z,8.33
2023-03-01T10:33:45.869Z,8.57
2023-03-01T10:36:13.005Z,7.60
2023-03-01T10:38:53.338Z,7.07
2023-03-01T10:41:20.487Z,7.43
2023-03-01T10:43:48.748Z,8.63
2023-03-01T10:46:26.534Z,8.50
2023-03-01T10:49:19.723Z,7.87
2023-03-01T10:51:49.200Z,7.57
2023-03-01T10:54:30.307Z,7.87
2023-03-01T10:56:58.582Z,8.00
2023-03-01T10:59:28.624Z,8.97
2023-03-01T11:02:24.976Z,7.90
2023-03-01T11:05:02.878Z,7.70
2023-03-01T11:07:30.667Z,10.67
2023-03-01T11:09:57.829Z,8.30
2023-03-01T11:12:25.782Z,8.07
2023-03-01T11:14:54.661Z,8.10
2023-03-01T11:17:28.668Z,6.87
2023-03-01T11:20:14.022Z,6.93
2023-03-01T11:22:58.250Z,8.13
2023-03-01T11:25:27.194Z,11.20
2023-03-01T11:27:55.137Z,7.70
2023-03-01T11:30:33.894Z,6.80
2023-03-01T11:33:13.118Z,6.80
2023-03-01T11:35:44.493Z,7.80
2023-03-01T11:38:14.561Z,7.20
2023-03-01T11:40:47.725Z,7.00
2023-03-01T11:43:22.324Z,7.77
2023-03-01T11:45:59.944Z,7.00
2023-03-01T11:48:43.368Z,7.07
2023-03-01T11:51:25.983Z,6.90
2023-03-01T11:53:53.435Z,6.80
2023-03-01T11:56:30.868Z,7.63
2023-03-01T11:59:04.542Z,7.17
2023-03-01T12:01:53.195Z,5.43
2023-03-01T12:04:26.100Z,6.73
2023-03-01T12:07:03.069Z,6.20
2023-03-01T12:09:48.784Z,7.43
2023-03-01T12:12:31.312Z,5.50
2023-03-01T12:15:17.175Z,5.37
2023-03-01T12:18:04.505Z,5.63
2023-03-01T12:20:31.567Z,5.47
2023-03-01T12:23:20.109Z,5.60
2023-03-01T12:26:06.995Z,5.77
2023-03-01T12:28:53.083Z,6.10
2023-03-01T12:31:21.841Z,5.90
2023-03-01T12:34:07.868Z,5.47
2023-03-01T12:36:34.882Z,6.27
2023-03-01T12:39:20.463Z,5.70
2023-03-01T12:42:13.093Z,6.00
2023-03-01T12:44:52.549Z,5.27
2023-03-01T12:47:19.632Z,6.37
2023-03-01T12:49:48.026Z,5.03
2023-03-01T12:52:18.788Z,5.70
2023-03-01T12:54:46.750Z,6.00
2023-03-01T12:57:18.928Z,5.57
2023-03-01T13:00:12.069Z,5.10
2023-03-01T13:02:44.187Z,5.73
2023-03-01T13:05:17.360Z,5.07
2023-03-01T13:08:00.660Z,4.50
2023-03-01T13:10:46.766Z,5.13
2023-03-01T13:13:24.514Z,5.80
2023-03-01T13:15:54.886Z,5.10
2023-03-01T13:18:26.255Z,5.63
2023-03-01T13:20:58.283Z,4.97
2023-03-01T13:23:26.711Z,5.53
2023-03-01T13:26:04.426Z,4.80
2023-03-01T13:28:34.366Z,4.60
2023-03-01T13:31:01.864Z,4.70
2023-03-01T13:33:28.899Z,4.83
2023-03-01T13:35:57.071Z,4.30
2023-03-01T13:38:42.683Z,4.90
2023-03-01T13:41:10.044Z,5.53
2023-03-01T13:43:38.172Z,4.67
2023-03-01T13:46:12.064Z,4.67
2023-03-01T13:48:39.934Z,4.67
2023-03-01T13:51:09.466Z,4.70
2023-03-01T13:53:38.279Z,5.20
2023-03-01T13:56:09.948Z,5.00
2023-03-01T13:58:54.785Z,4.70
2023-03-01T14:01:30.434Z,4.40
2023-03-01T14:04:00.719Z,4.20
2023-03-01T14:06:29.048Z,5.17
2023-03-01T14:09:11.004Z,4.53
2023-03-01T14:11:50.710Z,4.83
2023-03-01T14:14:20.545Z,4.60
2023-03-01T14:16:55.828Z,4.60
2023-03-01T14:19:34.514Z,4.80
2023-03-01T14:22:05.263Z,4.47
2023-03-01T14:24:33.849Z,3.80
2023-03-01T14:27:02.739Z,4.30
2023-03-01T14:29:36.623Z,4.20
2023-03-01T14:32:10.682Z,4.40
2023-03-01T14:34:37.807Z,4.43
2023-03-01T14:37:21.469Z,3.90
2023-03-01T14:39:48.835Z,4.27
2023-03-01T14:42:16.579Z,4.03
2023-03-01T14:44:44.825Z,3.40
2023-03-01T14:47:14.604Z,4.00
2023-03-01T14:49:42.412Z,3.80
2023-03-01T14:52:18.602Z,4.13
2023-03-01T14:54:50.573Z,3.70
2023-03-01T14:57:18.684Z,4.00
2023-03-01T14:59:46.167Z,4.23
2023-03-01T15:02:20.032Z,4.03
2023-03-01T15:04:49.781Z,4.10
2023-03-01T15:07:17.124Z,3.63
2023-03-01T15:09:44.501Z,3.93
2023-03-01T15:12:29.745Z,4.87
2023-03-01T15:15:03.964Z,4.40
2023-03-01T15:17:36.267Z,3.43
2023-03-01T15:20:05.226Z,4.10
2023-03-01T15:22:32.342Z,4.20
2023-03-01T15:24:59.580Z,4.10
2023-03-01T15:27:28.819Z,3.43
2023-03-01T15:30:03.155Z,4.40
2023-03-01T15:32:32.129Z,4.13
2023-03-01T15:35:00.134Z,3.90
2023-03-01T15:37:42.628Z,3.27
2023-03-01T15:40:21.494Z,4.30
2023-03-01T15:42:48.540Z,4.50
2023-03-01T15:45:18.405Z,3.30
2023-03-01T15:47:50.986Z,3.70
2023-03-01T15:50:28.584Z,4.47
2023-03-01T15:52:56.540Z,3.53
2023-03-01T15:55:25.030Z,3.80
2023-03-01T15:58:01.362Z,4.47
2023-03-01T16:00:28.412Z,4.37
2023-03-01T16:02:55.701Z,3.70
2023-03-01T16:05:32.742Z,4.17
2023-03-01T16:07:59.817Z,3.70
2023-03-01T16:10:26.958Z,3.70
2023-03-01T16:12:54.044Z,3.73
2023-03-01T16:15:22.967Z,6.60
2023-03-01T16:17:50.352Z,4.27
2023-03-01T16:20:27.316Z,4.50
2023-03-01T16:22:56.775Z,4.53
2023-03-01T16:25:23.805Z,4.43
2023-03-01T16:27:51.729Z,4.87
2023-03-01T16:30:20.947Z,5.00
2023-03-01T16:32:48.707Z,4.27
2023-03-01T16:35:17.372Z,4.60
2023-03-01T16:37:44.602Z,5.80
2023-03-01T16:40:22.141Z,5.05
2023-03-01T16:42:49.667Z,5.60
2023-03-01T16:45:25.182Z,6.22
2023-03-01T16:47:55.534Z,5.18
2023-03-01T16:50:23.057Z,5.50
2023-03-01T16:52:50.108Z,4.80
2023-03-01T16:55:17.215Z,5.38
2023-03-01T16:57:44.254Z,4.90
2023-03-01T17:00:13.624Z,5.07
2023-03-01T17:02:42.177Z,4.93
2023-03-01T17:05:14.594Z,5.30
2023-03-01T17:07:41.653Z,5.05
2023-03-01T17:10:10.124Z,5.03
2023-03-01T17:12:37.523Z,4.13
2023-03-01T17:15:05.399Z,4.65
2023-03-01T17:17:32.444Z,4.30
2023-03-01T17:19:59.484Z,4.85
2023-03-01T17:22:26.539Z,4.40
2023-03-01T17:24:53.637Z,3.90
2023-03-01T17:27:20.673Z,3.50
2023-03-01T17:29:47.792Z,5.15
2023-03-01T17:32:14.909Z,4.40
2023-03-01T17:34:42.458Z,4.40
2023-03-01T17:37:09.528Z,4.35
2023-03-01T17:39:36.695Z,4.35
2023-03-01T17:42:06.093Z,4.60
2023-03-01T17:44:34.495Z,3.85
2023-03-01T17:47:02.313Z,6.60
2023-03-01T17:49:29.437Z,5.20
2023-03-01T17:51:56.654Z,5.72
2023-03-01T17:54:23.722Z,4.70
2023-03-01T17:56:51.294Z,4.53
2023-03-01T17:59:18.685Z,5.05
2023-03-01T18:01:45.900Z,4.65
2023-03-01T18:04:12.949Z,4.75
2023-03-01T18:06:40.831Z,4.80
2023-03-01T18:09:08.156Z,5.50
2023-03-01T18:11:36.105Z,5.82
2023-03-01T18:14:03.297Z,6.22
2023-03-01T18:16:33.855Z,4.93
2023-03-01T18:19:01.953Z,5.22
2023-03-01T18:21:30.131Z,4.90
2023-03-01T18:23:59.428Z,6.03
2023-03-01T18:26:27.647Z,5.28
2023-03-01T18:28:54.910Z,4.57
2023-03-01T18:31:22.892Z,6.45
2023-03-01T18:33:50.692Z,4.28
2023-03-01T18:36:28.033Z,4.10
2023-03-01T18:38:56.706Z,7.75
2023-03-01T18:41:25.348Z,5.72
2023-03-01T18:43:52.677Z,4.97
2023-03-01T18:46:22.712Z,4.30
2023-03-01T18:48:50.071Z,5.13
2023-03-01T18:51:19.355Z,4.90
2023-03-01T18:53:46.613Z,5.50
2023-03-01T18:56:13.898Z,9.25
2023-03-01T18:58:43.028Z,11.85
2023-03-01T19:01:16.548Z,13.27
2023-03-01T19:03:43.740Z,6.63
2023-03-01T19:06:10.847Z,5.97
2023-03-01T19:08:38.233Z,5.90
2023-03-01T19:11:06.403Z,6.88
2023-03-01T19:13:35.018Z,7.60
2023-03-01T19:16:09.129Z,6.72
2023-03-01T19:18:36.697Z,6.82
2023-03-01T19:21:04.859Z,6.72
2023-03-01T19:23:34.848Z,7.88
2023-03-01T19:26:02.997Z,9.25
2023-03-01T19:28:30.158Z,7.00
2023-03-01T19:31:00.421Z,6.75
2023-03-01T19:33:28.376Z,6.70
2023-03-01T19:35:56.931Z,8.07
2023-03-01T19:38:24.248Z,6.68
2023-03-01T19:40:51.632Z,12.55
2023-03-01T19:43:19.112Z,9.80
2023-03-01T19:45:46.788Z,21.38
2023-03-01T19:48:13.800Z,15.63
2023-03-01T19:50:43.365Z,25.17
2023-03-01T19:53:10.350Z,12.65
2023-03-01T19:55:37.900Z,9.25
2023-03-01T19:58:06.103Z,7.72
2023-03-01T20:00:33.794Z,14.50
2023-03-01T20:03:00.993Z,13.52
2023-03-01T20:05:28.222Z,13.10
2023-03-01T20:07:57.401Z,11.50
2023-03-01T20:10:27.851Z,8.70
2023-03-01T20:12:55.492Z,7.68
2023-03-01T20:15:22.744Z,9.82
2023-03-01T20:17:49.786Z,8.88
2023-03-01T20:20:16.996Z,7.72
2023-03-01T20:22:44.035Z,8.13
2023-03-01T20:25:11.568Z,8.27
2023-03-01T20:27:38.746Z,8.88
2023-03-01T20:30:06.202Z,8.80
2023-03-01T20:32:33.597Z,7.88
2023-03-01T20:35:00.695Z,7.07
2023-03-01T20:37:28.724Z,7.22
2023-03-01T20:39:55.800Z,7.47
2023-03-01T20:42:22.834Z,7.82
2023-03-01T20:44:49.983Z,7.78
2023-03-01T20:47:17.099Z,7.60
2023-03-01T20:49:44.171Z,8.45
2023-03-01T20:52:13.236Z,8.05
2023-03-01T20:54:40.770Z,7.50
2023-03-01T20:57:10.024Z,9.55
2023-03-01T20:59:37.792Z,8.80
2023-03-01T21:02:04.921Z,9.15
2023-03-01T21:04:31.995Z,8.43
2023-03-01T21:06:59.123Z,7.75
2023-03-01T21:09:26.196Z,7.72
2023-03-01T21:11:53.388Z,9.32
2023-03-01T21:14:21.531Z,7.18
2023-03-01T21:16:48.857Z,6.90
2023-03-01T21:19:16.210Z,8.23
2023-03-01T21:21:43.320Z,7.35
2023-03-01T21:24:10.587Z,7.13
2023-03-01T21:28:17.638Z,5.35
2023-03-01T21:30:44.677Z,5.40
2023-03-01T21:33:11.836Z,10.15
2023-03-01T21:35:38.960Z,9.48
2023-03-01T21:38:06.115Z,9.95
2023-03-01T21:40:33.117Z,7.68
2023-03-01T21:43:00.174Z,6.38
2023-03-01T21:45:27.206Z,6.53
2023-03-01T21:47:54.388Z,6.47
2023-03-01T21:50:21.424Z,5.55
2023-03-01T21:52:48.536Z,4.43
2023-03-01T21:55:15.807Z,4.35
2023-03-01T21:57:43.474Z,4.95
2023-03-01T22:00:12.923Z,4.88
2023-03-01T22:02:39.994Z,10.13
2023-03-01T22:05:07.321Z,8.38
2023-03-01T22:07:34.428Z,6.45
2023-03-01T22:10:02.722Z,9.23
2023-03-01T22:12:30.110Z,8.30
2023-03-01T22:14:57.251Z,7.45
2023-03-01T22:17:24.368Z,7.72
2023-03-01T22:19:51.457Z,6.70
2023-03-01T22:22:18.539Z,7.50
2023-03-01T22:24:45.547Z,8.35
2023-03-01T22:27:12.573Z,7.15
2023-03-01T22:29:39.589Z,7.72
2023-03-01T22:32:07.007Z,7.30
2023-03-01T22:34:35.765Z,32.75
2023-03-01T22:37:04.012Z,14.65
2023-03-01T22:39:31.169Z,21.08
2023-03-01T22:41:58.171Z,16.02
2023-03-01T22:44:25.256Z,9.77
2023-03-01T22:46:52.832Z,7.95
2023-03-01T22:49:20.136Z,11.15
2023-03-01T22:51:47.748Z,11.25
2023-03-01T22:54:16.037Z,10.55
2023-03-01T22:56:43.176Z,10.02
2023-03-01T22:59:12.519Z,10.18
2023-03-01T23:01:41.194Z,10.90
2023-03-01T23:04:08.863Z,18.45
2023-03-01T23:06:50.053Z,18.52
2023-03-01T23:09:18.460Z,19.38
2023-03-01T23:11:45.563Z,12.90
2023-03-01T23:14:12.756Z,16.15
2023-03-01T23:16:39.883Z,14.13
2023-03-01T23:19:06.910Z,14.68
2023-03-01T23:21:34.045Z,11.60
2023-03-01T23:24:01.069Z,12.25
2023-03-01T23:26:29.289Z,12.30
2023-03-01T23:28:57.252Z,11.73
2023-03-01T23:31:30.085Z,12.32
2023-03-01T23:33:57.257Z,17.90
2023-03-01T23:36:29.347Z,16.38
2023-03-01T23:38:57.839Z,18.00
2023-03-01T23:41:25.862Z,14.00
2023-03-01T23:43:54.122Z,15.73
2023-03-01T23:46:22.073Z,16.05
2023-03-01T23:48:49.136Z,16.33
2023-03-01T23:51:17.877Z,14.40
2023-03-01T23:53:54.269Z,14.05
2023-03-01T23:56:26.144Z,11.18
2023-03-01T23:58:54.198Z,9.57
